Westville Center, New York
Current Conditions -  °F | °C
As of 6:53 PM on Wednesday 28 Jan 2015 (Local Time) from KMSS Reporting Station
Clear Clear  
Wind Chill: -18°   Ceiling: Unl
Heat Index: -13°   Visibility: 10mi
Dew Point: -21°   Wind: 5mph
Humidity: 53%   Direction: 210°SSW
Pressure: 30.3"   Gusts: NA
Location:  44.9516°N, 74.3293°W
Report Text: KMSS 282353Z AUTO 21004KT 10SM CLR M13/M21 A3030 RMK AO2 SLP270 T11331211 11078 21139 51013
Loading
Personal Weather Stations






























Interactive Weather Map New forecast layout! Learn more

10-Day Weather Forecast

Advertisements
Track Severe Weather on mobile